sensor_id;sensor_type;location;lat;lon;timestamp;pressure;altitude;pressure_sealevel;temperature;humidity
2036;BME280;23642;42.658;23.350;2022-07-29T00:01:50;53667.75;;;-146.31;88.23
2036;BME280;23642;42.658;23.350;2022-07-29T00:04:17;53673.94;;;-146.31;85.68
2036;BME280;23642;42.658;23.350;2022-07-29T00:06:44;53680.13;;;-146.31;85.96
2036;BME280;23642;42.658;23.350;2022-07-29T00:09:11;53671.88;;;-146.31;85.59
2036;BME280;23642;42.658;23.350;2022-07-29T00:11:38;53700.75;;;-146.31;85.55
2036;BME280;23642;42.658;23.350;2022-07-29T00:17:35;53725.53;;;-146.31;86.41
2036;BME280;23642;42.658;23.350;2022-07-29T00:23:41;53742.06;;;-146.31;86.42
2036;BME280;23642;42.658;23.350;2022-07-29T00:26:08;53752.38;;;-146.31;86.81
2036;BME280;23642;42.658;23.350;2022-07-29T00:28:35;53729.66;;;-146.31;84.13
2036;BME280;23642;42.658;23.350;2022-07-29T00:37:47;53721.41;;;-146.31;86.67
2036;BME280;23642;42.658;23.350;2022-07-29T00:40:14;53709.03;;;-146.31;86.39
2036;BME280;23642;42.658;23.350;2022-07-29T00:42:42;53740.00;;;-146.31;86.47
2036;BME280;23642;42.658;23.350;2022-07-29T00:45:28;53717.28;;;-146.31;87.24
2036;BME280;23642;42.658;23.350;2022-07-29T00:47:55;53702.84;;;-146.31;87.12
2036;BME280;23642;42.658;23.350;2022-07-29T00:53:45;53746.19;;;-146.31;85.67
2036;BME280;23642;42.658;23.350;2022-07-29T00:56:16;53731.72;;;-146.31;86.02
2036;BME280;23642;42.658;23.350;2022-07-29T01:08:40;53770.97;;;-146.31;84.73
2036;BME280;23642;42.658;23.350;2022-07-29T01:11:09;53775.09;;;-146.31;85.00
2036;BME280;23642;42.658;23.350;2022-07-29T01:13:36;53773.03;;;-146.31;84.77
2036;BME280;23642;42.658;23.350;2022-07-29T01:16:07;53781.28;;;-146.31;85.77
2036;BME280;23642;42.658;23.350;2022-07-29T01:18:39;53746.19;;;-146.31;86.07
2036;BME280;23642;42.658;23.350;2022-07-29T01:21:21;53717.28;;;-146.31;87.12
2036;BME280;23642;42.658;23.350;2022-07-29T01:24:11;53696.63;;;-146.31;87.64
2036;BME280;23642;42.658;23.350;2022-07-29T01:26:45;53694.56;;;-146.31;88.69
2036;BME280;23642;42.658;23.350;2022-07-29T01:29:21;53630.56;;;-146.31;87.72
2036;BME280;23642;42.658;23.350;2022-07-29T01:31:54;53673.94;;;-146.31;87.96
2036;BME280;23642;42.658;23.350;2022-07-29T01:34:25;53624.38;;;-146.31;88.60
2036;BME280;23642;42.658;23.350;2022-07-29T01:36:59;53676.00;;;-146.31;88.01
2036;BME280;23642;42.658;23.350;2022-07-29T01:39:32;53630.56;;;-146.31;88.19
2036;BME280;23642;42.658;23.350;2022-07-29T01:42:08;53667.75;;;-146.31;88.37
2036;BME280;23642;42.658;23.350;2022-07-29T01:44:43;53682.19;;;-146.31;89.65
2036;BME280;23642;42.658;23.350;2022-07-29T01:47:15;53655.34;;;-146.31;90.33
2036;BME280;23642;42.658;23.350;2022-07-29T01:49:47;53603.75;;;-146.31;90.18
2036;BME280;23642;42.658;23.350;2022-07-29T01:52:21;53632.66;;;-146.31;89.59
2036;BME280;23642;42.658;23.350;2022-07-29T01:54:53;53632.66;;;-146.31;90.25
2036;BME280;23642;42.658;23.350;2022-07-29T01:57:26;53616.13;;;-146.31;90.89
2036;BME280;23642;42.658;23.350;2022-07-29T01:59:56;53599.63;;;-146.31;91.21
2036;BME280;23642;42.658;23.350;2022-07-29T02:02:26;53585.16;;;-146.31;91.51
2036;BME280;23642;42.658;23.350;2022-07-29T02:04:54;53552.13;;;-146.31;90.14
2036;BME280;23642;42.658;23.350;2022-07-29T02:07:24;53601.69;;;-146.31;90.28
2036;BME280;23642;42.658;23.350;2022-07-29T02:09:53;53593.41;;;-146.31;90.94
2036;BME280;23642;42.658;23.350;2022-07-29T02:12:22;53614.06;;;-146.31;91.31
2036;BME280;23642;42.658;23.350;2022-07-29T02:14:53;53605.81;;;-146.31;91.85
2036;BME280;23642;42.658;23.350;2022-07-29T02:17:24;53614.06;;;-146.31;92.14
2036;BME280;23642;42.658;23.350;2022-07-29T02:19:54;53589.28;;;-146.31;92.18
2036;BME280;23642;42.658;23.350;2022-07-29T02:22:23;53556.25;;;-146.31;90.94
2036;BME280;23642;42.658;23.350;2022-07-29T02:24:51;53587.22;;;-146.31;91.59
2036;BME280;23642;42.658;23.350;2022-07-29T02:27:19;53605.81;;;-146.31;92.41
2036;BME280;23642;42.658;23.350;2022-07-29T02:29:48;53566.59;;;-146.31;92.57
2036;BME280;23642;42.658;23.350;2022-07-29T02:32:16;53537.69;;;-146.31;92.74
2036;BME280;23642;42.658;23.350;2022-07-29T02:34:48;53521.16;;;-146.31;92.47
2036;BME280;23642;42.658;23.350;2022-07-29T02:37:17;53514.97;;;-146.31;92.55
2036;BME280;23642;42.658;23.350;2022-07-29T02:39:46;53492.28;;;-146.31;92.11
2036;BME280;23642;42.658;23.350;2022-07-29T02:42:16;53512.91;;;-146.31;92.04
2036;BME280;23642;42.658;23.350;2022-07-29T02:44:43;53514.97;;;-146.31;91.31
2036;BME280;23642;42.658;23.350;2022-07-29T02:47:16;53554.19;;;-146.31;91.61
2036;BME280;23642;42.658;23.350;2022-07-29T02:49:52;53514.97;;;-146.31;91.22
2036;BME280;23642;42.658;23.350;2022-07-29T02:52:24;53492.28;;;-146.31;90.90
2036;BME280;23642;42.658;23.350;2022-07-29T02:54:55;53498.47;;;-146.31;90.47
2036;BME280;23642;42.658;23.350;2022-07-29T02:57:35;53521.16;;;-146.31;90.17
2036;BME280;23642;42.658;23.350;2022-07-29T03:00:06;53533.56;;;-146.31;90.04
2036;BME280;23642;42.658;23.350;2022-07-29T03:02:38;53525.31;;;-146.31;90.29
2036;BME280;23642;42.658;23.350;2022-07-29T03:05:12;53537.69;;;-146.31;90.46
2036;BME280;23642;42.658;23.350;2022-07-29T03:07:45;53519.09;;;-146.31;90.37
2036;BME280;23642;42.658;23.350;2022-07-29T03:10:12;53523.22;;;-146.31;90.39
2036;BME280;23642;42.658;23.350;2022-07-29T03:12:41;53481.94;;;-146.31;89.40
2036;BME280;23642;42.658;23.350;2022-07-29T03:15:09;53539.75;;;-146.31;87.75
2036;BME280;23642;42.658;23.350;2022-07-29T03:17:37;53521.16;;;-146.31;88.52
2036;BME280;23642;42.658;23.350;2022-07-29T03:20:06;53537.69;;;-146.31;87.86
2036;BME280;23642;42.658;23.350;2022-07-29T03:22:38;53548.00;;;-146.31;89.02
2036;BME280;23642;42.658;23.350;2022-07-29T03:25:09;53535.63;;;-146.31;88.54
2036;BME280;23642;42.658;23.350;2022-07-29T03:27:36;53519.09;;;-146.31;87.19
2036;BME280;23642;42.658;23.350;2022-07-29T03:30:03;53514.97;;;-146.31;87.37
2036;BME280;23642;42.658;23.350;2022-07-29T03:32:30;53514.97;;;-146.31;87.79
2036;BME280;23642;42.658;23.350;2022-07-29T03:34:57;53527.38;;;-146.31;88.62
2036;BME280;23642;42.658;23.350;2022-07-29T03:37:24;53539.75;;;-146.31;89.68
2036;BME280;23642;42.658;23.350;2022-07-29T03:39:55;53510.84;;;-146.31;90.27
2036;BME280;23642;42.658;23.350;2022-07-29T03:42:25;53498.47;;;-146.31;90.69
2036;BME280;23642;42.658;23.350;2022-07-29T03:44:54;53494.34;;;-146.31;91.07
2036;BME280;23642;42.658;23.350;2022-07-29T03:47:27;53444.78;;;-146.31;90.77
2036;BME280;23642;42.658;23.350;2022-07-29T03:49:59;53490.22;;;-146.31;91.04
2036;BME280;23642;42.658;23.350;2022-07-29T03:52:26;53461.31;;;-146.31;91.25
2036;BME280;23642;42.658;23.350;2022-07-29T03:54:56;53457.19;;;-146.31;91.18
2036;BME280;23642;42.658;23.350;2022-07-29T03:57:24;53455.13;;;-146.31;91.28
2036;BME280;23642;42.658;23.350;2022-07-29T03:59:54;53455.13;;;-146.31;90.94
2036;BME280;23642;42.658;23.350;2022-07-29T04:02:21;53399.38;;;-146.31;90.06
2036;BME280;23642;42.658;23.350;2022-07-29T04:04:49;53428.28;;;-146.31;88.65
2036;BME280;23642;42.658;23.350;2022-07-29T04:07:16;53434.47;;;-146.31;88.24
2036;BME280;23642;42.658;23.350;2022-07-29T04:09:43;53407.63;;;-146.31;87.69
2036;BME280;23642;42.658;23.350;2022-07-29T04:12:11;53424.16;;;-146.31;87.29
2036;BME280;23642;42.658;23.350;2022-07-29T04:14:38;53411.75;;;-146.31;86.68
2036;BME280;23642;42.658;23.350;2022-07-29T04:17:05;53407.63;;;-146.31;86.91
2036;BME280;23642;42.658;23.350;2022-07-29T04:19:32;53399.38;;;-146.31;86.18
2036;BME280;23642;42.658;23.350;2022-07-29T04:22:00;53391.13;;;-146.31;86.52
2036;BME280;23642;42.658;23.350;2022-07-29T04:24:27;53407.63;;;-146.31;86.09
2036;BME280;23642;42.658;23.350;2022-07-29T04:26:56;53424.16;;;-146.31;84.43
2036;BME280;23642;42.658;23.350;2022-07-29T04:29:24;53409.69;;;-146.31;83.79
2036;BME280;23642;42.658;23.350;2022-07-29T04:31:51;53422.09;;;-146.31;83.07
2036;BME280;23642;42.658;23.350;2022-07-29T04:34:18;53387.00;;;-146.31;83.02
2036;BME280;23642;42.658;23.350;2022-07-29T04:36:45;53417.97;;;-146.31;83.19
2036;BME280;23642;42.658;23.350;2022-07-29T04:39:13;53440.66;;;-146.31;82.47
2036;BME280;23642;42.658;23.350;2022-07-29T04:41:40;53424.16;;;-146.31;82.12
2036;BME280;23642;42.658;23.350;2022-07-29T04:44:07;53467.50;;;-146.31;81.84
2036;BME280;23642;42.658;23.350;2022-07-29T04:46:35;53455.13;;;-146.31;81.77
2036;BME280;23642;42.658;23.350;2022-07-29T04:49:02;53448.91;;;-146.31;80.56
2036;BME280;23642;42.658;23.350;2022-07-29T04:51:29;53451.00;;;-146.31;80.38
2036;BME280;23642;42.658;23.350;2022-07-29T04:53:56;53415.91;;;-146.31;79.24
2036;BME280;23642;42.658;23.350;2022-07-29T04:56:23;53424.16;;;-146.31;78.58
2036;BME280;23642;42.658;23.350;2022-07-29T04:58:50;53467.50;;;-146.31;77.01
2036;BME280;23642;42.658;23.350;2022-07-29T05:01:17;53500.53;;;-146.31;75.66
2036;BME280;23642;42.658;23.350;2022-07-29T05:03:45;53519.09;;;-146.31;75.08
2036;BME280;23642;42.658;23.350;2022-07-29T05:06:12;53510.84;;;-146.31;74.46
2036;BME280;23642;42.658;23.350;2022-07-29T05:08:39;53574.84;;;-146.31;73.89
2036;BME280;23642;42.658;23.350;2022-07-29T05:11:05;53587.22;;;-146.31;74.47
2036;BME280;23642;42.658;23.350;2022-07-29T05:13:32;53510.84;;;-146.31;75.22
2036;BME280;23642;42.658;23.350;2022-07-29T05:15:59;53510.84;;;-146.31;74.78
2036;BME280;23642;42.658;23.350;2022-07-29T05:18:26;53457.19;;;-146.31;73.41
2036;BME280;23642;42.658;23.350;2022-07-29T05:20:55;53525.31;;;-146.31;73.43
2036;BME280;23642;42.658;23.350;2022-07-29T05:23:22;53543.88;;;-146.31;72.27
2036;BME280;23642;42.658;23.350;2022-07-29T05:25:49;53605.81;;;-146.31;71.90
2036;BME280;23642;42.658;23.350;2022-07-29T05:28:16;53593.41;;;-146.31;71.89
2036;BME280;23642;42.658;23.350;2022-07-29T05:30:43;53543.88;;;-146.31;71.25
2036;BME280;23642;42.658;23.350;2022-07-29T05:33:10;53543.88;;;-146.31;70.76
2036;BME280;23642;42.658;23.350;2022-07-29T05:35:37;53574.84;;;-146.31;70.49
2036;BME280;23642;42.658;23.350;2022-07-29T05:38:06;53512.91;;;-146.31;71.28
2036;BME280;23642;42.658;23.350;2022-07-29T05:40:33;53465.44;;;-146.31;69.93
2036;BME280;23642;42.658;23.350;2022-07-29T05:42:59;53484.00;;;-146.31;70.38
2036;BME280;23642;42.658;23.350;2022-07-29T05:45:26;53432.41;;;-146.31;69.84
2036;BME280;23642;42.658;23.350;2022-07-29T05:47:53;53531.50;;;-146.31;69.00
2036;BME280;23642;42.658;23.350;2022-07-29T05:50:20;53543.88;;;-146.31;68.63
2036;BME280;23642;42.658;23.350;2022-07-29T05:52:47;53597.56;;;-146.31;67.72
2036;BME280;23642;42.658;23.350;2022-07-29T05:55:15;53568.66;;;-146.31;68.22
2036;BME280;23642;42.658;23.350;2022-07-29T05:57:42;53570.72;;;-146.31;67.09
2036;BME280;23642;42.658;23.350;2022-07-29T06:00:11;53632.66;;;-146.31;66.13
2036;BME280;23642;42.658;23.350;2022-07-29T06:02:38;53651.22;;;-146.31;66.01
2036;BME280;23642;42.658;23.350;2022-07-29T06:05:05;53729.66;;;-146.31;66.08
2036;BME280;23642;42.658;23.350;2022-07-29T06:07:32;53709.03;;;-146.31;64.54
2036;BME280;23642;42.658;23.350;2022-07-29T06:10:01;53754.44;;;-146.31;63.55
2036;BME280;23642;42.658;23.350;2022-07-29T06:12:32;53787.47;;;-146.31;64.02
2036;BME280;23642;42.658;23.350;2022-07-29T06:14:59;53812.25;;;-146.31;65.08
2036;BME280;23642;42.658;23.350;2022-07-29T06:17:26;53775.09;;;-146.31;64.85
2036;BME280;23642;42.658;23.350;2022-07-29T06:19:53;53758.56;;;-146.31;65.04
2036;BME280;23642;42.658;23.350;2022-07-29T06:22:20;53735.88;;;-146.31;65.07
2036;BME280;23642;42.658;23.350;2022-07-29T06:24:47;53742.06;;;-146.31;64.59
2036;BME280;23642;42.658;23.350;2022-07-29T06:27:18;53692.50;;;-146.31;64.02
2036;BME280;23642;42.658;23.350;2022-07-29T06:29:54;53766.81;;;-146.31;64.26
2036;BME280;23642;42.658;23.350;2022-07-29T06:32:24;53651.22;;;-146.31;63.59
2036;BME280;23642;42.658;23.350;2022-07-29T06:34:51;53704.91;;;-146.31;63.30
2036;BME280;23642;42.658;23.350;2022-07-29T06:37:21;53647.09;;;-146.31;64.93
2036;BME280;23642;42.658;23.350;2022-07-29T06:39:50;53686.31;;;-146.31;62.66
2036;BME280;23642;42.658;23.350;2022-07-29T06:42:36;53715.22;;;-146.31;62.58
2036;BME280;23642;42.658;23.350;2022-07-29T06:45:05;53706.97;;;-146.31;63.90
2036;BME280;23642;42.658;23.350;2022-07-29T06:47:32;53700.75;;;-146.31;62.83
2036;BME280;23642;42.658;23.350;2022-07-29T06:49:59;53647.09;;;-146.31;62.88
2036;BME280;23642;42.658;23.350;2022-07-29T06:52:26;53638.84;;;-146.31;63.62
2036;BME280;23642;42.658;23.350;2022-07-29T06:54:57;53603.75;;;-146.31;61.80
2036;BME280;23642;42.658;23.350;2022-07-29T06:57:32;53589.28;;;-146.31;61.93
2036;BME280;23642;42.658;23.350;2022-07-29T07:00:17;53572.78;;;-146.31;61.87
2036;BME280;23642;42.658;23.350;2022-07-29T07:03:13;53620.25;;;-146.31;60.96
2036;BME280;23642;42.658;23.350;2022-07-29T07:05:41;53587.22;;;-146.31;61.48
2036;BME280;23642;42.658;23.350;2022-07-29T07:08:07;53694.56;;;-146.31;61.16
2036;BME280;23642;42.658;23.350;2022-07-29T07:10:45;53754.44;;;-146.31;62.06
2036;BME280;23642;42.658;23.350;2022-07-29T07:13:17;53727.59;;;-146.31;60.81
2036;BME280;23642;42.658;23.350;2022-07-29T07:15:48;53595.47;;;-146.31;60.94
2036;BME280;23642;42.658;23.350;2022-07-29T07:18:18;53614.06;;;-146.31;61.14
2036;BME280;23642;42.658;23.350;2022-07-29T07:20:48;53609.94;;;-146.31;60.43
2036;BME280;23642;42.658;23.350;2022-07-29T07:23:23;53517.03;;;-146.31;59.58
2036;BME280;23642;42.658;23.350;2022-07-29T07:25:50;53663.59;;;-146.31;57.80
2036;BME280;23642;42.658;23.350;2022-07-29T07:28:23;53630.56;;;-146.31;58.07
2036;BME280;23642;42.658;23.350;2022-07-29T07:30:52;53847.34;;;-146.31;58.78
2036;BME280;23642;42.658;23.350;2022-07-29T07:33:27;53659.47;;;-146.31;58.63
2036;BME280;23642;42.658;23.350;2022-07-29T07:36:05;53766.81;;;-146.31;56.61
2036;BME280;23642;42.658;23.350;2022-07-29T07:42:27;53719.34;;;-146.31;55.41
2036;BME280;23642;42.658;23.350;2022-07-29T07:45:07;53775.09;;;-146.31;54.64
2036;BME280;23642;42.658;23.350;2022-07-29T07:47:37;53843.22;;;-146.31;55.21
2036;BME280;23642;42.658;23.350;2022-07-29T07:50:07;53696.63;;;-146.31;55.78
2036;BME280;23642;42.658;23.350;2022-07-29T07:52:53;53787.47;;;-146.31;54.21
2036;BME280;23642;42.658;23.350;2022-07-29T07:55:26;53723.47;;;-146.31;54.30
2036;BME280;23642;42.658;23.350;2022-07-29T07:57:56;53969.16;;;-146.31;55.14
2036;BME280;23642;42.658;23.350;2022-07-29T08:00:35;53863.84;;;-146.31;54.81
2036;BME280;23642;42.658;23.350;2022-07-29T08:06:33;53870.06;;;-146.31;55.86
2036;BME280;23642;42.658;23.350;2022-07-29T08:09:07;53882.44;;;-146.31;54.21
2036;BME280;23642;42.658;23.350;2022-07-29T08:11:34;53958.81;;;-146.31;52.85
2036;BME280;23642;42.658;23.350;2022-07-29T08:14:01;54018.69;;;-146.31;53.24
2036;BME280;23642;42.658;23.350;2022-07-29T08:16:30;53954.69;;;-146.31;53.43
2036;BME280;23642;42.658;23.350;2022-07-29T08:18:57;53878.31;;;-146.31;52.23
2036;BME280;23642;42.658;23.350;2022-07-29T08:21:28;54194.19;;;-146.31;51.62
2036;BME280;23642;42.658;23.350;2022-07-29T08:24:10;54210.72;;;-146.31;52.85
2036;BME280;23642;42.658;23.350;2022-07-29T08:26:54;54282.97;;;-146.31;50.43
2036;BME280;23642;42.658;23.350;2022-07-29T08:29:23;54324.28;;;-146.31;50.93
2036;BME280;23642;42.658;23.350;2022-07-29T08:31:52;54415.13;;;-146.31;49.71
2036;BME280;23642;42.658;23.350;2022-07-29T08:34:23;54536.94;;;-146.31;49.51
2036;BME280;23642;42.658;23.350;2022-07-29T08:36:53;54470.88;;;-146.31;49.50
2036;BME280;23642;42.658;23.350;2022-07-29T08:39:20;54516.28;;;-146.31;49.34
2036;BME280;23642;42.658;23.350;2022-07-29T08:41:47;54532.81;;;-146.31;48.73
2036;BME280;23642;42.658;23.350;2022-07-29T08:44:15;54421.31;;;-146.31;49.72
2036;BME280;23642;42.658;23.350;2022-07-29T08:46:42;54423.38;;;-146.31;48.68
2036;BME280;23642;42.658;23.350;2022-07-29T08:49:09;54404.78;;;-146.31;48.61
2036;BME280;23642;42.658;23.350;2022-07-29T08:51:39;54404.78;;;-146.31;48.62
2036;BME280;23642;42.658;23.350;2022-07-29T08:54:09;54394.47;;;-146.31;47.95
2036;BME280;23642;42.658;23.350;2022-07-29T08:56:36;54460.53;;;-146.31;46.79
2036;BME280;23642;42.658;23.350;2022-07-29T08:59:05;54619.53;;;-146.31;45.13
2036;BME280;23642;42.658;23.350;2022-07-29T09:01:36;54592.69;;;-146.31;45.94
2036;BME280;23642;42.658;23.350;2022-07-29T09:04:04;54437.84;;;-146.31;46.57
2036;BME280;23642;42.658;23.350;2022-07-29T09:06:34;54477.06;;;-146.31;44.91
2036;BME280;23642;42.658;23.350;2022-07-29T09:09:03;54534.88;;;-146.31;44.91
2036;BME280;23642;42.658;23.350;2022-07-29T09:14:22;54600.97;;;-146.31;45.13
2036;BME280;23642;42.658;23.350;2022-07-29T09:16:51;54625.75;;;-146.31;46.14
2036;BME280;23642;42.658;23.350;2022-07-29T09:19:37;54625.75;;;-146.31;47.42
2036;BME280;23642;42.658;23.350;2022-07-29T09:22:07;54623.66;;;-146.31;46.84
2036;BME280;23642;42.658;23.350;2022-07-29T09:24:56;54662.91;;;-146.31;45.96
2036;BME280;23642;42.658;23.350;2022-07-29T09:27:33;54634.00;;;-146.31;45.13
2036;BME280;23642;42.658;23.350;2022-07-29T09:30:49;54543.13;;;-146.31;45.56
2036;BME280;23642;42.658;23.350;2022-07-29T09:33:03;54472.94;;;-146.31;44.92
2036;BME280;23642;42.658;23.350;2022-07-29T09:36:16;54520.44;;;-146.31;44.33
2036;BME280;23642;42.658;23.350;2022-07-29T09:39:06;54530.75;;;-146.31;44.47
2036;BME280;23642;42.658;23.350;2022-07-29T09:42:11;54489.44;;;-146.31;45.12
2036;BME280;23642;42.658;23.350;2022-07-29T09:44:47;54495.66;;;-146.31;43.90
2036;BME280;23642;42.658;23.350;2022-07-29T09:47:22;54512.16;;;-146.31;44.20
2036;BME280;23642;42.658;23.350;2022-07-29T09:50:07;54603.03;;;-146.31;44.76
2036;BME280;23642;42.658;23.350;2022-07-29T09:52:50;54600.97;;;-146.31;44.91
2036;BME280;23642;42.658;23.350;2022-07-29T09:55:48;54677.34;;;-146.31;44.94
2036;BME280;23642;42.658;23.350;2022-07-29T09:58:21;54733.13;;;-146.31;45.54
2036;BME280;23642;42.658;23.350;2022-07-29T10:01:14;54638.13;;;-146.31;45.56
2036;BME280;23642;42.658;23.350;2022-07-29T10:04:04;54594.75;;;-146.31;46.96
2036;BME280;23642;42.658;23.350;2022-07-29T10:07:00;54605.09;;;-146.31;46.22
2036;BME280;23642;42.658;23.350;2022-07-29T10:09:28;54617.47;;;-146.31;45.60
2036;BME280;23642;42.658;23.350;2022-07-29T10:12:10;54629.88;;;-146.31;46.16
2036;BME280;23642;42.658;23.350;2022-07-29T10:14:45;54634.00;;;-146.31;47.12
2036;BME280;23642;42.658;23.350;2022-07-29T10:17:20;54605.09;;;-146.31;47.56
2036;BME280;23642;42.658;23.350;2022-07-29T10:20:12;54631.94;;;-146.31;45.25
2036;BME280;23642;42.658;23.350;2022-07-29T10:22:54;54636.06;;;-146.31;45.11
2036;BME280;23642;42.658;23.350;2022-07-29T10:25:53;54596.81;;;-146.31;43.24
2036;BME280;23642;42.658;23.350;2022-07-29T10:28:30;54530.75;;;-146.31;43.03
2036;BME280;23642;42.658;23.350;2022-07-29T10:31:35;54419.25;;;-146.31;45.11
2036;BME280;23642;42.658;23.350;2022-07-29T10:34:20;54419.25;;;-146.31;43.48
2036;BME280;23642;42.658;23.350;2022-07-29T10:37:02;54419.25;;;-146.31;42.46
2036;BME280;23642;42.658;23.350;2022-07-29T10:39:39;54349.03;;;-146.31;43.24
2036;BME280;23642;42.658;23.350;2022-07-29T10:42:29;54404.78;;;-146.31;41.29
2036;BME280;23642;42.658;23.350;2022-07-29T10:45:27;54437.84;;;-146.31;41.01
2036;BME280;23642;42.658;23.350;2022-07-29T10:48:03;54477.06;;;-146.31;39.28
2036;BME280;23642;42.658;23.350;2022-07-29T10:53:47;54408.94;;;-146.31;40.20
2036;BME280;23642;42.658;23.350;2022-07-29T10:56:25;54427.50;;;-146.31;39.19
2036;BME280;23642;42.658;23.350;2022-07-29T10:59:34;54555.53;;;-146.31;38.66
2036;BME280;23642;42.658;23.350;2022-07-29T11:02:41;54576.19;;;-146.31;39.37
2036;BME280;23642;42.658;23.350;2022-07-29T11:05:14;54551.41;;;-146.31;39.09
2036;BME280;23642;42.658;23.350;2022-07-29T11:08:24;54485.31;;;-146.31;39.04
2036;BME280;23642;42.658;23.350;2022-07-29T11:14:08;54580.31;;;-146.31;37.62
2036;BME280;23642;42.658;23.350;2022-07-29T11:17:02;54510.09;;;-146.31;38.01
2036;BME280;23642;42.658;23.350;2022-07-29T11:19:37;54464.69;;;-146.31;37.80
2036;BME280;23642;42.658;23.350;2022-07-29T11:22:11;54392.41;;;-146.31;38.24
2036;BME280;23642;42.658;23.350;2022-07-29T11:24:38;54289.16;;;-146.31;38.19
2036;BME280;23642;42.658;23.350;2022-07-29T11:27:10;54274.72;;;-146.31;38.15
2036;BME280;23642;42.658;23.350;2022-07-29T11:29:48;54303.63;;;-146.31;37.46
2036;BME280;23642;42.658;23.350;2022-07-29T11:32:16;54274.72;;;-146.31;37.53
2036;BME280;23642;42.658;23.350;2022-07-29T11:34:45;54344.91;;;-146.31;36.30
2036;BME280;23642;42.658;23.350;2022-07-29T11:37:31;54516.28;;;-146.31;36.74
2036;BME280;23642;42.658;23.350;2022-07-29T11:40:15;54623.66;;;-146.31;36.63
2036;BME280;23642;42.658;23.350;2022-07-29T11:42:48;54553.47;;;-146.31;36.82
2036;BME280;23642;42.658;23.350;2022-07-29T11:45:24;54493.59;;;-146.31;37.68
2036;BME280;23642;42.658;23.350;2022-07-29T11:47:56;54468.81;;;-146.31;36.98
2036;BME280;23642;42.658;23.350;2022-07-29T11:50:33;54553.47;;;-146.31;36.38
2036;BME280;23642;42.658;23.350;2022-07-29T11:53:01;54499.78;;;-146.31;36.77
2036;BME280;23642;42.658;23.350;2022-07-29T11:55:30;54613.34;;;-146.31;35.53
2036;BME280;23642;42.658;23.350;2022-07-29T11:58:01;54611.28;;;-146.31;35.64
2036;BME280;23642;42.658;23.350;2022-07-29T12:00:32;54536.94;;;-146.31;36.75
2036;BME280;23642;42.658;23.350;2022-07-29T12:03:03;54431.63;;;-146.31;36.56
2036;BME280;23642;42.658;23.350;2022-07-29T12:05:32;54363.50;;;-146.31;35.99
2036;BME280;23642;42.658;23.350;2022-07-29T12:08:08;54332.53;;;-146.31;34.89
2036;BME280;23642;42.658;23.350;2022-07-29T12:10:36;54344.91;;;-146.31;34.33
2036;BME280;23642;42.658;23.350;2022-07-29T12:13:03;54460.53;;;-146.31;34.00
2036;BME280;23642;42.658;23.350;2022-07-29T12:15:41;54415.13;;;-146.31;34.37
2036;BME280;23642;42.658;23.350;2022-07-29T12:18:16;54245.81;;;-146.31;35.67
2036;BME280;23642;42.658;23.350;2022-07-29T12:20:44;54493.59;;;-146.31;34.04
2036;BME280;23642;42.658;23.350;2022-07-29T12:23:11;54501.84;;;-146.31;34.04
2036;BME280;23642;42.658;23.350;2022-07-29T12:25:40;54435.75;;;-146.31;33.67
2036;BME280;23642;42.658;23.350;2022-07-29T12:28:12;54437.84;;;-146.31;34.52
2036;BME280;23642;42.658;23.350;2022-07-29T12:30:51;54328.41;;;-146.31;34.52
2036;BME280;23642;42.658;23.350;2022-07-29T12:33:22;54105.41;;;-146.31;35.22
2036;BME280;23642;42.658;23.350;2022-07-29T12:35:53;54280.91;;;-146.31;33.02
2036;BME280;23642;42.658;23.350;2022-07-29T12:38:20;54332.53;;;-146.31;33.71
2036;BME280;23642;42.658;23.350;2022-07-29T12:41:07;54423.38;;;-146.31;33.13
2036;BME280;23642;42.658;23.350;2022-07-29T12:44:56;54429.56;;;-146.31;32.98
2036;BME280;23642;42.658;23.350;2022-07-29T12:47:22;54361.44;;;-146.31;33.67
2036;BME280;23642;42.658;23.350;2022-07-29T12:50:23;54313.94;;;-146.31;33.70
2036;BME280;23642;42.658;23.350;2022-07-29T12:53:16;54353.19;;;-146.31;32.65
2036;BME280;23642;42.658;23.350;2022-07-29T12:55:44;54413.06;;;-146.31;32.38
2036;BME280;23642;42.658;23.350;2022-07-29T12:58:25;54361.44;;;-146.31;32.00
2036;BME280;23642;42.658;23.350;2022-07-29T13:01:05;54291.22;;;-146.31;32.42
2036;BME280;23642;42.658;23.350;2022-07-29T13:03:50;54328.41;;;-146.31;31.95
2036;BME280;23642;42.658;23.350;2022-07-29T13:06:34;54305.69;;;-146.31;32.29
2036;BME280;23642;42.658;23.350;2022-07-29T13:09:12;54318.06;;;-146.31;31.70
2036;BME280;23642;42.658;23.350;2022-07-29T13:11:48;54404.78;;;-146.31;32.36
2036;BME280;23642;42.658;23.350;2022-07-29T13:14:50;54355.25;;;-146.31;32.62
2036;BME280;23642;42.658;23.350;2022-07-29T13:17:22;54328.41;;;-146.31;32.36
2036;BME280;23642;42.658;23.350;2022-07-29T13:22:51;54165.28;;;-146.31;32.75
2036;BME280;23642;42.658;23.350;2022-07-29T13:25:53;54295.34;;;-146.31;32.28
2036;BME280;23642;42.658;23.350;2022-07-29T13:28:22;54297.44;;;-146.31;31.73
2036;BME280;23642;42.658;23.350;2022-07-29T13:30:49;54444.03;;;-146.31;32.25
2036;BME280;23642;42.658;23.350;2022-07-29T13:33:16;54235.47;;;-146.31;32.51
2036;BME280;23642;42.658;23.350;2022-07-29T13:35:44;54229.28;;;-146.31;32.34
2036;BME280;23642;42.658;23.350;2022-07-29T13:38:12;54245.81;;;-146.31;32.75
2036;BME280;23642;42.658;23.350;2022-07-29T13:40:41;54266.44;;;-146.31;32.12
2036;BME280;23642;42.658;23.350;2022-07-29T13:43:08;54221.03;;;-146.31;32.14
2036;BME280;23642;42.658;23.350;2022-07-29T13:45:36;54270.59;;;-146.31;31.52
2036;BME280;23642;42.658;23.350;2022-07-29T13:48:11;54196.25;;;-146.31;32.34
2036;BME280;23642;42.658;23.350;2022-07-29T13:50:39;54229.28;;;-146.31;32.02
2036;BME280;23642;42.658;23.350;2022-07-29T13:53:11;54334.59;;;-146.31;31.36
2036;BME280;23642;42.658;23.350;2022-07-29T13:55:41;54460.53;;;-146.31;31.21
2036;BME280;23642;42.658;23.350;2022-07-29T13:58:08;54303.63;;;-146.31;31.87